sensor_id;sensor_type;location;lat;lon;timestamp;P1;durP1;ratioP1;P2;durP2;ratioP2
70545;SDS011;58098;51.680;5.134;2023-05-15T00:00:23;41.83;;;24.40;;
70545;SDS011;58098;51.680;5.134;2023-05-15T00:02:49;51.08;;;26.73;;
70545;SDS011;58098;51.680;5.134;2023-05-15T00:05:14;39.30;;;24.73;;
70545;SDS011;58098;51.680;5.134;2023-05-15T00:07:40;39.70;;;25.47;;
70545;SDS011;58098;51.680;5.134;2023-05-15T00:10:05;40.97;;;25.53;;
70545;SDS011;58098;51.680;5.134;2023-05-15T00:12:31;48.42;;;27.08;;
70545;SDS011;58098;51.680;5.134;2023-05-15T00:14:57;46.67;;;25.70;;
70545;SDS011;58098;51.680;5.134;2023-05-15T00:17:22;46.27;;;26.60;;
70545;SDS011;58098;51.680;5.134;2023-05-15T00:19:47;46.47;;;27.13;;
70545;SDS011;58098;51.680;5.134;2023-05-15T00:22:12;41.07;;;25.77;;
70545;SDS011;58098;51.680;5.134;2023-05-15T00:24:38;44.10;;;25.70;;
70545;SDS011;58098;51.680;5.134;2023-05-15T00:27:03;49.53;;;27.47;;
70545;SDS011;58098;51.680;5.134;2023-05-15T00:29:29;45.78;;;26.08;;
70545;SDS011;58098;51.680;5.134;2023-05-15T00:31:54;41.37;;;25.23;;
70545;SDS011;58098;51.680;5.134;2023-05-15T00:34:20;44.63;;;26.87;;
70545;SDS011;58098;51.680;5.134;2023-05-15T00:36:46;44.55;;;26.90;;
70545;SDS011;58098;51.680;5.134;2023-05-15T00:39:12;43.70;;;26.00;;
70545;SDS011;58098;51.680;5.134;2023-05-15T00:41:37;47.30;;;27.45;;
70545;SDS011;58098;51.680;5.134;2023-05-15T00:44:05;47.27;;;27.47;;
70545;SDS011;58098;51.680;5.134;2023-05-15T00:46:32;44.58;;;26.08;;
70545;SDS011;58098;51.680;5.134;2023-05-15T00:48:59;47.75;;;26.55;;
70545;SDS011;58098;51.680;5.134;2023-05-15T00:51:27;47.60;;;26.38;;
70545;SDS011;58098;51.680;5.134;2023-05-15T00:53:53;43.07;;;27.00;;
70545;SDS011;58098;51.680;5.134;2023-05-15T00:56:20;48.92;;;28.15;;
70545;SDS011;58098;51.680;5.134;2023-05-15T00:58:46;51.73;;;29.53;;
70545;SDS011;58098;51.680;5.134;2023-05-15T01:01:13;55.35;;;30.15;;
70545;SDS011;58098;51.680;5.134;2023-05-15T01:03:40;50.28;;;27.95;;
70545;SDS011;58098;51.680;5.134;2023-05-15T01:06:06;53.95;;;31.23;;
70545;SDS011;58098;51.680;5.134;2023-05-15T01:08:42;52.90;;;28.70;;
70545;SDS011;58098;51.680;5.134;2023-05-15T01:11:09;55.28;;;29.23;;
70545;SDS011;58098;51.680;5.134;2023-05-15T01:13:37;55.13;;;28.40;;
70545;SDS011;58098;51.680;5.134;2023-05-15T01:16:02;55.20;;;29.33;;
70545;SDS011;58098;51.680;5.134;2023-05-15T01:18:28;61.65;;;31.23;;
70545;SDS011;58098;51.680;5.134;2023-05-15T01:29:22;60.10;;;31.83;;
70545;SDS011;58098;51.680;5.134;2023-05-15T01:31:56;59.58;;;31.38;;
70545;SDS011;58098;51.680;5.134;2023-05-15T01:34:29;58.13;;;32.30;;
70545;SDS011;58098;51.680;5.134;2023-05-15T01:37:03;65.22;;;33.95;;
70545;SDS011;58098;51.680;5.134;2023-05-15T01:39:32;63.33;;;34.08;;
70545;SDS011;58098;51.680;5.134;2023-05-15T01:42:01;59.92;;;32.92;;
70545;SDS011;58098;51.680;5.134;2023-05-15T01:44:31;65.38;;;32.88;;
70545;SDS011;58098;51.680;5.134;2023-05-15T01:47:11;57.17;;;31.23;;
70545;SDS011;58098;51.680;5.134;2023-05-15T01:49:38;61.25;;;32.47;;
70545;SDS011;58098;51.680;5.134;2023-05-15T01:52:09;58.22;;;30.63;;
70545;SDS011;58098;51.680;5.134;2023-05-15T01:54:38;76.22;;;35.15;;
70545;SDS011;58098;51.680;5.134;2023-05-15T01:57:04;62.80;;;31.27;;
70545;SDS011;58098;51.680;5.134;2023-05-15T01:59:33;61.33;;;30.33;;
70545;SDS011;58098;51.680;5.134;2023-05-15T02:01:59;60.53;;;30.55;;
70545;SDS011;58098;51.680;5.134;2023-05-15T02:04:28;70.97;;;31.52;;
70545;SDS011;58098;51.680;5.134;2023-05-15T02:06:54;67.80;;;33.25;;
70545;SDS011;58098;51.680;5.134;2023-05-15T02:09:20;62.53;;;30.10;;
70545;SDS011;58098;51.680;5.134;2023-05-15T02:11:47;62.10;;;30.95;;
70545;SDS011;58098;51.680;5.134;2023-05-15T02:14:12;63.63;;;31.75;;
70545;SDS011;58098;51.680;5.134;2023-05-15T02:16:40;65.07;;;30.17;;
70545;SDS011;58098;51.680;5.134;2023-05-15T02:19:05;61.45;;;31.10;;
70545;SDS011;58098;51.680;5.134;2023-05-15T02:21:31;55.43;;;28.90;;
70545;SDS011;58098;51.680;5.134;2023-05-15T02:23:56;51.00;;;25.63;;
70545;SDS011;58098;51.680;5.134;2023-05-15T02:29:09;63.47;;;31.50;;
70545;SDS011;58098;51.680;5.134;2023-05-15T02:36:59;66.40;;;31.63;;
70545;SDS011;58098;51.680;5.134;2023-05-15T02:39:27;65.80;;;32.30;;
70545;SDS011;58098;51.680;5.134;2023-05-15T02:41:53;70.68;;;32.47;;
70545;SDS011;58098;51.680;5.134;2023-05-15T02:44:20;69.65;;;33.47;;
70545;SDS011;58098;51.680;5.134;2023-05-15T02:46:46;68.50;;;32.78;;
70545;SDS011;58098;51.680;5.134;2023-05-15T02:49:14;64.40;;;33.47;;
70545;SDS011;58098;51.680;5.134;2023-05-15T02:51:41;70.32;;;31.67;;
70545;SDS011;58098;51.680;5.134;2023-05-15T02:54:06;63.20;;;31.07;;
70545;SDS011;58098;51.680;5.134;2023-05-15T02:56:33;70.15;;;33.58;;
70545;SDS011;58098;51.680;5.134;2023-05-15T02:58:59;74.20;;;35.75;;
70545;SDS011;58098;51.680;5.134;2023-05-15T03:01:24;67.90;;;33.03;;
70545;SDS011;58098;51.680;5.134;2023-05-15T03:03:50;68.53;;;32.83;;
70545;SDS011;58098;51.680;5.134;2023-05-15T03:06:15;70.55;;;32.08;;
70545;SDS011;58098;51.680;5.134;2023-05-15T03:08:42;74.90;;;32.70;;
70545;SDS011;58098;51.680;5.134;2023-05-15T03:11:08;70.55;;;32.88;;
70545;SDS011;58098;51.680;5.134;2023-05-15T03:13:33;83.07;;;36.10;;
70545;SDS011;58098;51.680;5.134;2023-05-15T03:15:58;77.23;;;34.03;;
70545;SDS011;58098;51.680;5.134;2023-05-15T03:18:23;71.07;;;33.60;;
70545;SDS011;58098;51.680;5.134;2023-05-15T03:20:50;71.27;;;33.47;;
70545;SDS011;58098;51.680;5.134;2023-05-15T03:23:16;73.97;;;34.13;;
70545;SDS011;58098;51.680;5.134;2023-05-15T03:25:42;73.43;;;33.53;;
70545;SDS011;58098;51.680;5.134;2023-05-15T03:28:07;77.60;;;35.17;;
70545;SDS011;58098;51.680;5.134;2023-05-15T03:30:33;77.57;;;35.55;;
70545;SDS011;58098;51.680;5.134;2023-05-15T03:32:58;78.20;;;34.97;;
70545;SDS011;58098;51.680;5.134;2023-05-15T03:35:24;85.40;;;36.40;;
70545;SDS011;58098;51.680;5.134;2023-05-15T03:37:50;83.85;;;37.85;;
70545;SDS011;58098;51.680;5.134;2023-05-15T03:40:15;79.37;;;33.83;;
70545;SDS011;58098;51.680;5.134;2023-05-15T03:42:40;83.37;;;36.30;;
70545;SDS011;58098;51.680;5.134;2023-05-15T03:45:06;90.27;;;36.33;;
70545;SDS011;58098;51.680;5.134;2023-05-15T03:47:32;84.47;;;37.42;;
70545;SDS011;58098;51.680;5.134;2023-05-15T03:49:57;83.53;;;38.67;;
70545;SDS011;58098;51.680;5.134;2023-05-15T03:52:22;75.87;;;34.77;;
70545;SDS011;58098;51.680;5.134;2023-05-15T03:54:48;79.90;;;35.53;;
70545;SDS011;58098;51.680;5.134;2023-05-15T03:57:14;90.87;;;37.77;;
70545;SDS011;58098;51.680;5.134;2023-05-15T03:59:39;81.63;;;35.75;;
70545;SDS011;58098;51.680;5.134;2023-05-15T04:02:05;82.73;;;34.87;;
70545;SDS011;58098;51.680;5.134;2023-05-15T04:04:30;80.07;;;34.70;;
70545;SDS011;58098;51.680;5.134;2023-05-15T04:06:56;82.97;;;37.77;;
70545;SDS011;58098;51.680;5.134;2023-05-15T04:09:21;85.93;;;37.73;;
70545;SDS011;58098;51.680;5.134;2023-05-15T04:11:46;89.90;;;37.20;;
70545;SDS011;58098;51.680;5.134;2023-05-15T04:14:12;85.27;;;37.07;;
70545;SDS011;58098;51.680;5.134;2023-05-15T04:16:37;78.27;;;34.53;;
70545;SDS011;58098;51.680;5.134;2023-05-15T04:19:02;80.73;;;34.77;;
70545;SDS011;58098;51.680;5.134;2023-05-15T04:21:28;81.57;;;35.77;;
70545;SDS011;58098;51.680;5.134;2023-05-15T04:23:53;79.57;;;34.47;;
70545;SDS011;58098;51.680;5.134;2023-05-15T04:26:18;75.00;;;34.28;;
70545;SDS011;58098;51.680;5.134;2023-05-15T04:28:44;87.17;;;37.00;;
70545;SDS011;58098;51.680;5.134;2023-05-15T04:31:09;84.57;;;34.13;;
70545;SDS011;58098;51.680;5.134;2023-05-15T04:33:35;75.90;;;34.72;;
70545;SDS011;58098;51.680;5.134;2023-05-15T04:36:03;77.47;;;34.15;;
70545;SDS011;58098;51.680;5.134;2023-05-15T04:38:29;86.77;;;33.20;;
70545;SDS011;58098;51.680;5.134;2023-05-15T04:40:54;72.00;;;31.70;;
70545;SDS011;58098;51.680;5.134;2023-05-15T04:43:19;75.70;;;33.50;;
70545;SDS011;58098;51.680;5.134;2023-05-15T04:45:45;77.97;;;34.93;;
70545;SDS011;58098;51.680;5.134;2023-05-15T04:48:10;81.47;;;34.00;;
70545;SDS011;58098;51.680;5.134;2023-05-15T04:50:36;80.50;;;35.10;;
70545;SDS011;58098;51.680;5.134;2023-05-15T04:53:01;68.53;;;30.33;;
70545;SDS011;58098;51.680;5.134;2023-05-15T04:55:27;76.55;;;35.28;;
70545;SDS011;58098;51.680;5.134;2023-05-15T04:57:52;64.40;;;30.50;;
70545;SDS011;58098;51.680;5.134;2023-05-15T05:00:18;59.70;;;28.80;;
70545;SDS011;58098;51.680;5.134;2023-05-15T05:02:43;59.95;;;30.52;;
70545;SDS011;58098;51.680;5.134;2023-05-15T05:05:08;59.40;;;30.43;;
70545;SDS011;58098;51.680;5.134;2023-05-15T05:07:34;63.93;;;31.43;;
70545;SDS011;58098;51.680;5.134;2023-05-15T05:10:00;63.53;;;36.20;;
70545;SDS011;58098;51.680;5.134;2023-05-15T05:12:26;59.47;;;31.70;;
70545;SDS011;58098;51.680;5.134;2023-05-15T05:14:51;66.18;;;32.47;;
70545;SDS011;58098;51.680;5.134;2023-05-15T05:17:16;66.20;;;31.47;;
70545;SDS011;58098;51.680;5.134;2023-05-15T05:19:42;61.03;;;31.80;;
70545;SDS011;58098;51.680;5.134;2023-05-15T05:22:16;49.73;;;29.27;;
70545;SDS011;58098;51.680;5.134;2023-05-15T05:24:42;53.30;;;27.30;;
70545;SDS011;58098;51.680;5.134;2023-05-15T05:27:07;50.15;;;27.88;;
70545;SDS011;58098;51.680;5.134;2023-05-15T05:29:33;51.37;;;32.50;;
70545;SDS011;58098;51.680;5.134;2023-05-15T05:31:58;53.07;;;29.73;;
70545;SDS011;58098;51.680;5.134;2023-05-15T05:34:23;45.43;;;26.73;;
70545;SDS011;58098;51.680;5.134;2023-05-15T05:36:49;45.07;;;27.67;;
70545;SDS011;58098;51.680;5.134;2023-05-15T05:39:14;46.90;;;28.03;;
70545;SDS011;58098;51.680;5.134;2023-05-15T05:41:40;47.90;;;27.35;;
70545;SDS011;58098;51.680;5.134;2023-05-15T05:44:06;52.07;;;28.70;;
70545;SDS011;58098;51.680;5.134;2023-05-15T05:46:31;48.00;;;26.05;;
70545;SDS011;58098;51.680;5.134;2023-05-15T05:48:56;51.97;;;31.33;;
70545;SDS011;58098;51.680;5.134;2023-05-15T05:51:22;54.67;;;29.80;;
70545;SDS011;58098;51.680;5.134;2023-05-15T05:53:47;58.23;;;32.13;;
70545;SDS011;58098;51.680;5.134;2023-05-15T05:56:13;52.00;;;29.90;;
70545;SDS011;58098;51.680;5.134;2023-05-15T05:58:38;50.53;;;29.20;;
70545;SDS011;58098;51.680;5.134;2023-05-15T06:01:03;60.37;;;31.70;;
70545;SDS011;58098;51.680;5.134;2023-05-15T06:03:29;48.90;;;28.75;;
70545;SDS011;58098;51.680;5.134;2023-05-15T06:05:55;41.08;;;26.63;;
70545;SDS011;58098;51.680;5.134;2023-05-15T06:08:21;43.67;;;25.80;;
70545;SDS011;58098;51.680;5.134;2023-05-15T06:10:46;47.00;;;28.20;;
70545;SDS011;58098;51.680;5.134;2023-05-15T06:13:12;40.73;;;26.13;;
70545;SDS011;58098;51.680;5.134;2023-05-15T06:15:38;45.67;;;27.30;;
70545;SDS011;58098;51.680;5.134;2023-05-15T06:18:04;44.57;;;25.60;;
70545;SDS011;58098;51.680;5.134;2023-05-15T06:20:30;45.72;;;27.88;;
70545;SDS011;58098;51.680;5.134;2023-05-15T06:22:55;45.87;;;28.13;;
70545;SDS011;58098;51.680;5.134;2023-05-15T06:25:20;43.63;;;28.30;;
70545;SDS011;58098;51.680;5.134;2023-05-15T06:27:46;41.17;;;25.60;;
70545;SDS011;58098;51.680;5.134;2023-05-15T06:30:11;48.93;;;31.33;;
70545;SDS011;58098;51.680;5.134;2023-05-15T06:32:38;46.38;;;29.45;;
70545;SDS011;58098;51.680;5.134;2023-05-15T06:35:04;44.78;;;28.58;;
70545;SDS011;58098;51.680;5.134;2023-05-15T06:37:29;48.42;;;29.08;;
70545;SDS011;58098;51.680;5.134;2023-05-15T06:39:55;44.70;;;27.80;;
70545;SDS011;58098;51.680;5.134;2023-05-15T06:42:20;50.73;;;31.43;;
70545;SDS011;58098;51.680;5.134;2023-05-15T06:44:46;51.83;;;30.97;;
70545;SDS011;58098;51.680;5.134;2023-05-15T06:47:11;49.67;;;29.52;;
70545;SDS011;58098;51.680;5.134;2023-05-15T06:49:37;50.90;;;30.93;;
70545;SDS011;58098;51.680;5.134;2023-05-15T06:52:02;43.73;;;28.80;;
70545;SDS011;58098;51.680;5.134;2023-05-15T06:54:28;47.80;;;28.93;;
70545;SDS011;58098;51.680;5.134;2023-05-15T06:56:53;48.03;;;29.03;;
70545;SDS011;58098;51.680;5.134;2023-05-15T06:59:19;43.38;;;27.02;;
70545;SDS011;58098;51.680;5.134;2023-05-15T07:01:44;45.87;;;28.20;;
70545;SDS011;58098;51.680;5.134;2023-05-15T07:04:09;47.70;;;29.50;;
70545;SDS011;58098;51.680;5.134;2023-05-15T07:06:35;47.13;;;29.30;;
70545;SDS011;58098;51.680;5.134;2023-05-15T07:09:01;41.20;;;26.80;;
70545;SDS011;58098;51.680;5.134;2023-05-15T07:11:27;49.45;;;28.90;;
70545;SDS011;58098;51.680;5.134;2023-05-15T07:13:53;51.40;;;31.40;;
70545;SDS011;58098;51.680;5.134;2023-05-15T07:16:18;46.60;;;29.33;;
70545;SDS011;58098;51.680;5.134;2023-05-15T07:18:43;44.53;;;28.47;;
70545;SDS011;58098;51.680;5.134;2023-05-15T07:21:09;46.33;;;28.27;;
70545;SDS011;58098;51.680;5.134;2023-05-15T07:23:34;44.77;;;29.70;;
70545;SDS011;58098;51.680;5.134;2023-05-15T07:25:59;44.50;;;27.17;;
70545;SDS011;58098;51.680;5.134;2023-05-15T07:28:25;47.03;;;29.27;;
70545;SDS011;58098;51.680;5.134;2023-05-15T07:30:50;48.87;;;28.40;;
70545;SDS011;58098;51.680;5.134;2023-05-15T07:33:16;44.03;;;27.90;;
70545;SDS011;58098;51.680;5.134;2023-05-15T07:35:42;39.88;;;25.92;;
70545;SDS011;58098;51.680;5.134;2023-05-15T07:38:07;43.57;;;26.30;;
70545;SDS011;58098;51.680;5.134;2023-05-15T07:40:32;40.83;;;25.90;;
70545;SDS011;58098;51.680;5.134;2023-05-15T07:42:58;40.77;;;27.20;;
70545;SDS011;58098;51.680;5.134;2023-05-15T07:45:23;40.37;;;26.33;;
70545;SDS011;58098;51.680;5.134;2023-05-15T07:47:49;41.27;;;25.00;;
70545;SDS011;58098;51.680;5.134;2023-05-15T07:50:14;32.70;;;21.97;;
70545;SDS011;58098;51.680;5.134;2023-05-15T07:52:40;38.57;;;24.03;;
70545;SDS011;58098;51.680;5.134;2023-05-15T07:55:06;35.53;;;23.95;;
70545;SDS011;58098;51.680;5.134;2023-05-15T07:57:32;41.72;;;25.27;;
70545;SDS011;58098;51.680;5.134;2023-05-15T07:59:57;34.07;;;23.50;;
70545;SDS011;58098;51.680;5.134;2023-05-15T08:02:23;39.73;;;22.57;;
70545;SDS011;58098;51.680;5.134;2023-05-15T08:04:48;34.17;;;23.05;;
70545;SDS011;58098;51.680;5.134;2023-05-15T08:07:14;36.93;;;24.33;;
70545;SDS011;58098;51.680;5.134;2023-05-15T08:09:39;35.13;;;22.03;;
70545;SDS011;58098;51.680;5.134;2023-05-15T08:14:59;34.35;;;22.77;;
70545;SDS011;58098;51.680;5.134;2023-05-15T08:17:24;33.23;;;21.97;;
70545;SDS011;58098;51.680;5.134;2023-05-15T08:19:50;33.03;;;20.27;;
70545;SDS011;58098;51.680;5.134;2023-05-15T08:22:16;31.95;;;21.67;;
70545;SDS011;58098;51.680;5.134;2023-05-15T08:24:41;34.83;;;22.57;;
70545;SDS011;58098;51.680;5.134;2023-05-15T08:27:07;33.30;;;22.60;;
70545;SDS011;58098;51.680;5.134;2023-05-15T08:29:33;33.17;;;22.40;;
70545;SDS011;58098;51.680;5.134;2023-05-15T08:31:59;30.70;;;19.83;;
70545;SDS011;58098;51.680;5.134;2023-05-15T08:34:25;30.83;;;20.47;;
70545;SDS011;58098;51.680;5.134;2023-05-15T08:36:50;33.63;;;20.92;;
70545;SDS011;58098;51.680;5.134;2023-05-15T08:39:16;36.30;;;22.40;;
70545;SDS011;58098;51.680;5.134;2023-05-15T08:44:49;32.30;;;21.85;;
70545;SDS011;58098;51.680;5.134;2023-05-15T08:47:14;33.43;;;22.43;;
70545;SDS011;58098;51.680;5.134;2023-05-15T08:52:28;34.25;;;21.55;;
70545;SDS011;58098;51.680;5.134;2023-05-15T08:54:54;36.07;;;22.40;;
70545;SDS011;58098;51.680;5.134;2023-05-15T08:57:20;34.90;;;21.83;;
70545;SDS011;58098;51.680;5.134;2023-05-15T08:59:45;34.00;;;21.33;;
70545;SDS011;58098;51.680;5.134;2023-05-15T09:02:12;33.08;;;20.50;;
70545;SDS011;58098;51.680;5.134;2023-05-15T09:04:38;35.67;;;23.75;;
70545;SDS011;58098;51.680;5.134;2023-05-15T09:07:03;37.50;;;22.70;;
70545;SDS011;58098;51.680;5.134;2023-05-15T09:09:31;38.75;;;23.35;;
70545;SDS011;58098;51.680;5.134;2023-05-15T09:11:57;39.93;;;25.00;;
70545;SDS011;58098;51.680;5.134;2023-05-15T09:14:24;40.75;;;25.90;;
70545;SDS011;58098;51.680;5.134;2023-05-15T09:16:50;38.50;;;25.57;;
70545;SDS011;58098;51.680;5.134;2023-05-15T09:19:17;37.55;;;23.65;;
70545;SDS011;58098;51.680;5.134;2023-05-15T09:21:44;33.92;;;22.95;;
70545;SDS011;58098;51.680;5.134;2023-05-15T09:26:41;37.97;;;23.60;;
70545;SDS011;58098;51.680;5.134;2023-05-15T09:29:07;39.60;;;25.40;;
70545;SDS011;58098;51.680;5.134;2023-05-15T09:31:33;39.87;;;23.93;;
70545;SDS011;58098;51.680;5.134;2023-05-15T09:33:59;35.43;;;23.97;;
70545;SDS011;58098;51.680;5.134;2023-05-15T09:36:30;37.53;;;25.08;;
70545;SDS011;58098;51.680;5.134;2023-05-15T09:38:57;36.45;;;23.92;;
70545;SDS011;58098;51.680;5.134;2023-05-15T09:41:23;36.58;;;22.98;;
70545;SDS011;58098;51.680;5.134;2023-05-15T09:43:50;35.47;;;23.23;;
70545;SDS011;58098;51.680;5.134;2023-05-15T09:46:16;39.75;;;25.70;;
70545;SDS011;58098;51.680;5.134;2023-05-15T09:48:41;41.73;;;28.10;;
70545;SDS011;58098;51.680;5.134;2023-05-15T09:51:13;43.63;;;26.67;;
70545;SDS011;58098;51.680;5.134;2023-05-15T09:53:49;39.88;;;27.23;;
70545;SDS011;58098;51.680;5.134;2023-05-15T09:56:16;41.83;;;27.75;;
70545;SDS011;58098;51.680;5.134;2023-05-15T09:58:51;42.90;;;28.58;;
70545;SDS011;58098;51.680;5.134;2023-05-15T10:01:24;49.47;;;29.92;;
70545;SDS011;58098;51.680;5.134;2023-05-15T10:03:59;47.80;;;30.77;;
70545;SDS011;58098;51.680;5.134;2023-05-15T10:06:26;39.90;;;26.35;;
70545;SDS011;58098;51.680;5.134;2023-05-15T10:08:52;43.58;;;28.60;;
70545;SDS011;58098;51.680;5.134;2023-05-15T10:11:21;43.13;;;28.77;;
70545;SDS011;58098;51.680;5.134;2023-05-15T10:13:47;44.13;;;28.97;;
70545;SDS011;58098;51.680;5.134;2023-05-15T10:16:13;43.10;;;28.90;;
70545;SDS011;58098;51.680;5.134;2023-05-15T10:18:39;46.07;;;30.10;;
70545;SDS011;58098;51.680;5.134;2023-05-15T10:21:08;36.75;;;24.13;;
70545;SDS011;58098;51.680;5.134;2023-05-15T10:23:34;41.83;;;26.23;;
70545;SDS011;58098;51.680;5.134;2023-05-15T10:26:06;41.58;;;24.20;;
70545;SDS011;58098;51.680;5.134;2023-05-15T10:28:38;43.38;;;29.13;;
70545;SDS011;58098;51.680;5.134;2023-05-15T10:31:04;38.57;;;24.30;;
70545;SDS011;58098;51.680;5.134;2023-05-15T10:33:31;40.60;;;25.85;;
70545;SDS011;58098;51.680;5.134;2023-05-15T10:35:57;46.13;;;27.50;;
70545;SDS011;58098;51.680;5.134;2023-05-15T10:38:22;43.45;;;27.27;;
70545;SDS011;58098;51.680;5.134;2023-05-15T10:40:50;45.17;;;27.43;;
70545;SDS011;58098;51.680;5.134;2023-05-15T10:43:16;40.80;;;25.45;;
70545;SDS011;58098;51.680;5.134;2023-05-15T10:45:44;41.55;;;27.95;;
70545;SDS011;58098;51.680;5.134;2023-05-15T10:48:10;46.60;;;27.08;;
70545;SDS011;58098;51.680;5.134;2023-05-15T10:50:38;43.97;;;27.83;;
70545;SDS011;58098;51.680;5.134;2023-05-15T10:53:03;44.37;;;27.60;;
70545;SDS011;58098;51.680;5.134;2023-05-15T10:55:29;47.03;;;27.60;;
70545;SDS011;58098;51.680;5.134;2023-05-15T10:57:55;44.87;;;26.47;;
70545;SDS011;58098;51.680;5.134;2023-05-15T11:02:45;48.10;;;29.50;;
70545;SDS011;58098;51.680;5.134;2023-05-15T11:05:12;51.10;;;33.05;;
70545;SDS011;58098;51.680;5.134;2023-05-15T11:07:38;48.90;;;29.15;;
70545;SDS011;58098;51.680;5.134;2023-05-15T11:12:54;49.63;;;31.00;;
70545;SDS011;58098;51.680;5.134;2023-05-15T11:15:23;56.35;;;32.97;;
70545;SDS011;58098;51.680;5.134;2023-05-15T11:30:05;71.63;;;43.20;;
70545;SDS011;58098;51.680;5.134;2023-05-15T11:35:11;78.65;;;41.53;;
70545;SDS011;58098;51.680;5.134;2023-05-15T11:37:41;71.97;;;39.67;;
70545;SDS011;58098;51.680;5.134;2023-05-15T11:40:11;66.60;;;38.85;;
70545;SDS011;58098;51.680;5.134;2023-05-15T11:45:37;67.63;;;38.00;;
70545;SDS011;58098;51.680;5.134;2023-05-15T11:48:04;69.32;;;39.35;;
70545;SDS011;58098;51.680;5.134;2023-05-15T11:50:31;68.60;;;35.73;;
70545;SDS011;58098;51.680;5.134;2023-05-15T11:53:00;72.00;;;40.35;;
70545;SDS011;58098;51.680;5.134;2023-05-15T11:55:27;71.43;;;38.08;;
70545;SDS011;58098;51.680;5.134;2023-05-15T11:57:55;64.68;;;36.95;;
70545;SDS011;58098;51.680;5.134;2023-05-15T12:00:20;74.03;;;39.00;;
70545;SDS011;58098;51.680;5.134;2023-05-15T12:02:45;69.43;;;35.77;;
70545;SDS011;58098;51.680;5.134;2023-05-15T12:05:11;68.43;;;34.55;;
70545;SDS011;58098;51.680;5.134;2023-05-15T12:07:40;61.63;;;30.70;;
70545;SDS011;58098;51.680;5.134;2023-05-15T12:10:10;59.30;;;31.15;;
70545;SDS011;58098;51.680;5.134;2023-05-15T12:12:43;62.00;;;32.10;;
70545;SDS011;58098;51.680;5.134;2023-05-15T12:15:13;61.53;;;30.52;;
70545;SDS011;58098;51.680;5.134;2023-05-15T12:17:41;55.53;;;32.55;;
70545;SDS011;58098;51.680;5.134;2023-05-15T12:20:07;55.90;;;29.20;;
70545;SDS011;58098;51.680;5.134;2023-05-15T12:22:35;54.67;;;30.70;;
70545;SDS011;58098;51.680;5.134;2023-05-15T12:25:04;52.80;;;27.43;;
70545;SDS011;58098;51.680;5.134;2023-05-15T12:27:31;57.28;;;30.73;;
70545;SDS011;58098;51.680;5.134;2023-05-15T12:29:56;57.90;;;32.22;;
70545;SDS011;58098;51.680;5.134;2023-05-15T12:32:22;55.23;;;30.37;;
70545;SDS011;58098;51.680;5.134;2023-05-15T12:34:47;48.17;;;26.73;;
70545;SDS011;58098;51.680;5.134;2023-05-15T12:37:13;53.93;;;31.23;;
70545;SDS011;58098;51.680;5.134;2023-05-15T12:42:44;43.83;;;26.02;;
70545;SDS011;58098;51.680;5.134;2023-05-15T12:45:16;44.97;;;26.47;;
70545;SDS011;58098;51.680;5.134;2023-05-15T12:47:43;40.95;;;27.08;;
70545;SDS011;58098;51.680;5.134;2023-05-15T12:50:11;41.95;;;25.45;;
70545;SDS011;58098;51.680;5.134;2023-05-15T12:52:37;40.05;;;24.85;;
70545;SDS011;58098;51.680;5.134;2023-05-15T12:55:02;37.50;;;23.70;;
70545;SDS011;58098;51.680;5.134;2023-05-15T12:57:27;35.50;;;22.07;;
70545;SDS011;58098;51.680;5.134;2023-05-15T12:59:53;38.13;;;22.77;;
70545;SDS011;58098;51.680;5.134;2023-05-15T13:02:19;30.10;;;20.27;;
70545;SDS011;58098;51.680;5.134;2023-05-15T13:04:45;34.77;;;22.13;;
70545;SDS011;58098;51.680;5.134;2023-05-15T13:07:13;29.83;;;19.45;;
70545;SDS011;58098;51.680;5.134;2023-05-15T13:09:40;29.03;;;17.63;;
70545;SDS011;58098;51.680;5.134;2023-05-15T13:12:06;25.67;;;15.23;;
70545;SDS011;58098;51.680;5.134;2023-05-15T13:14:31;20.43;;;12.73;;
70545;SDS011;58098;51.680;5.134;2023-05-15T13:16:58;14.82;;;11.15;;
70545;SDS011;58098;51.680;5.134;2023-05-15T13:19:26;14.67;;;10.17;;
70545;SDS011;58098;51.680;5.134;2023-05-15T13:21:52;16.40;;;8.93;;
70545;SDS011;58098;51.680;5.134;2023-05-15T13:24:17;9.70;;;6.93;;
70545;SDS011;58098;51.680;5.134;2023-05-15T13:26:43;18.70;;;8.80;;
70545;SDS011;58098;51.680;5.134;2023-05-15T13:29:08;16.03;;;8.23;;
70545;SDS011;58098;51.680;5.134;2023-05-15T13:31:33;12.77;;;8.40;;
70545;SDS011;58098;51.680;5.134;2023-05-15T13:33:59;16.07;;;9.00;;
70545;SDS011;58098;51.680;5.134;2023-05-15T13:36:24;14.93;;;8.17;;
70545;SDS011;58098;51.680;5.134;2023-05-15T13:38:50;14.85;;;8.05;;
70545;SDS011;58098;51.680;5.134;2023-05-15T13:41:15;15.23;;;8.63;;
70545;SDS011;58098;51.680;5.134;2023-05-15T13:43:40;13.40;;;6.97;;
70545;SDS011;58098;51.680;5.134;2023-05-15T13:46:06;12.13;;;7.57;;
70545;SDS011;58098;51.680;5.134;2023-05-15T13:48:31;17.90;;;8.70;;
70545;SDS011;58098;51.680;5.134;2023-05-15T13:50:56;12.97;;;7.90;;
70545;SDS011;58098;51.680;5.134;2023-05-15T13:53:22;14.60;;;7.43;;
70545;SDS011;58098;51.680;5.134;2023-05-15T13:55:47;11.57;;;6.63;;
70545;SDS011;58098;51.680;5.134;2023-05-15T13:58:12;13.15;;;6.55;;
70545;SDS011;58098;51.680;5.134;2023-05-15T14:00:38;10.87;;;5.80;;
70545;SDS011;58098;51.680;5.134;2023-05-15T14:03:06;16.13;;;6.60;;
70545;SDS011;58098;51.680;5.134;2023-05-15T14:05:31;18.33;;;6.60;;
70545;SDS011;58098;51.680;5.134;2023-05-15T14:07:57;21.38;;;7.30;;
70545;SDS011;58098;51.680;5.134;2023-05-15T14:10:22;18.17;;;7.07;;
70545;SDS011;58098;51.680;5.134;2023-05-15T14:12:48;19.07;;;6.63;;
70545;SDS011;58098;51.680;5.134;2023-05-15T14:15:14;13.93;;;6.22;;
70545;SDS011;58098;51.680;5.134;2023-05-15T14:17:39;14.67;;;6.70;;
70545;SDS011;58098;51.680;5.134;2023-05-15T14:20:05;11.57;;;5.90;;
70545;SDS011;58098;51.680;5.134;2023-05-15T14:22:31;14.32;;;6.10;;
70545;SDS011;58098;51.680;5.134;2023-05-15T14:24:56;16.27;;;6.40;;
70545;SDS011;58098;51.680;5.134;2023-05-15T14:27:22;13.53;;;6.43;;
70545;SDS011;58098;51.680;5.134;2023-05-15T14:29:47;12.53;;;5.37;;
70545;SDS011;58098;51.680;5.134;2023-05-15T14:32:13;14.00;;;5.10;;
70545;SDS011;58098;51.680;5.134;2023-05-15T14:34:38;11.20;;;5.23;;
70545;SDS011;58098;51.680;5.134;2023-05-15T14:37:03;17.95;;;5.13;;
70545;SDS011;58098;51.680;5.134;2023-05-15T14:39:29;14.67;;;5.00;;
70545;SDS011;58098;51.680;5.134;2023-05-15T14:41:54;19.70;;;5.83;;
70545;SDS011;58098;51.680;5.134;2023-05-15T14:44:20;15.80;;;5.90;;
70545;SDS011;58098;51.680;5.134;2023-05-15T14:46:45;17.77;;;4.90;;
70545;SDS011;58098;51.680;5.134;2023-05-15T14:49:10;18.20;;;5.20;;
70545;SDS011;58098;51.680;5.134;2023-05-15T14:51:36;13.03;;;5.37;;
70545;SDS011;58098;51.680;5.134;2023-05-15T14:54:01;15.13;;;6.10;;
70545;SDS011;58098;51.680;5.134;2023-05-15T14:56:28;16.92;;;5.55;;
70545;SDS011;58098;51.680;5.134;2023-05-15T14:58:54;14.30;;;5.50;;
70545;SDS011;58098;51.680;5.134;2023-05-15T15:01:19;15.60;;;5.47;;
70545;SDS011;58098;51.680;5.134;2023-05-15T15:03:46;15.43;;;5.22;;
70545;SDS011;58098;51.680;5.134;2023-05-15T15:06:11;13.27;;;4.90;;
70545;SDS011;58098;51.680;5.134;2023-05-15T15:08:37;10.23;;;4.20;;
70545;SDS011;58098;51.680;5.134;2023-05-15T15:11:02;11.17;;;3.80;;